RJOK

Kochi Airport

Airport
ICAO code
RJOK
IATA Code
KCZ
Summary
ICAO Region
APAC
ICAO Territory
Location

Nankoku, Kochi Prefecture

Serving
Kochi
Elevation
29 ft
Coordinates
33° 32' 51" N , 133° 40' 27" E
KCC
Metar
Observation
RJOK 301100Z 36003KT 330V030 9999 FEW030 SCT060 04/M02 Q1019
Station
Kochi Airport
Date/Time
2023-01-30 12:00:00
Wind direction
360°
Wind speed
03 kts
Lowest cloud amount
few clouds
Temperature
4°C
Dew point
-2°C
Humidity
64%
QNH
1019 hPa
Weather condition
n/a

Kōchi Airport, also known as Kōchi Ryōma Airport, is a regional airport in Nankoku, a city in Kōchi Prefecture of Japan. It is located on the southeastern coast, 13km east of the city of Kōchi.

Climatology

Humid Sub-tropical climate (Köppen climate classification Cfa)

Runways

Designator Length Width Surface Rops
14/32 2500 45 ASP Yes/Yes

Airport map

Aerial View

SKYbrary Partners:

Safety knowledge contributed by: